createdAt,value
2023-04-22T00:01:46.995Z,5.03
2023-04-22T00:04:16.575Z,4.85
2023-04-22T00:06:46.861Z,5.07
2023-04-22T00:09:16.041Z,4.65
2023-04-22T00:11:45.414Z,4.88
2023-04-22T00:14:14.681Z,4.60
2023-04-22T00:16:44.269Z,5.40
2023-04-22T00:19:13.469Z,4.90
2023-04-22T00:21:43.541Z,5.35
2023-04-22T00:24:12.811Z,5.72
2023-04-22T00:26:42.325Z,6.25
2023-04-22T00:29:11.436Z,6.45
2023-04-22T00:31:40.817Z,6.32
2023-04-22T00:34:09.849Z,5.97
2023-04-22T00:36:39.637Z,6.40
2023-04-22T00:39:08.830Z,6.95
2023-04-22T00:41:38.581Z,8.02
2023-04-22T00:44:13.046Z,7.20
2023-04-22T00:46:43.049Z,7.05
2023-04-22T00:49:12.138Z,6.90
2023-04-22T00:51:41.714Z,6.00
2023-04-22T00:54:10.844Z,5.93
2023-04-22T00:56:40.724Z,5.90
2023-04-22T00:59:11.857Z,5.40
2023-04-22T01:01:41.867Z,5.50
2023-04-22T01:04:13.727Z,5.50
2023-04-22T01:24:44.972Z,7.95
2023-04-22T01:44:19.946Z,4.32
2023-04-22T01:46:52.273Z,4.00
2023-04-22T02:06:42.178Z,3.45
2023-04-22T02:09:11.771Z,4.90
2023-04-22T02:12:13.195Z,3.72
2023-04-22T02:14:42.965Z,3.63
2023-04-22T02:30:55.886Z,2.72
2023-04-22T02:33:25.382Z,2.70
2023-04-22T02:49:45.946Z,2.30
2023-04-22T02:52:16.781Z,2.13
2023-04-22T02:58:14.118Z,2.10
2023-04-22T03:00:43.656Z,1.75
2023-04-22T03:06:41.691Z,1.20
2023-04-22T03:09:10.970Z,1.25
2023-04-22T03:11:40.832Z,1.23
2023-04-22T03:14:10.929Z,0.70
2023-04-22T03:16:40.976Z,1.05
2023-04-22T03:19:10.765Z,1.40
2023-04-22T03:21:40.444Z,1.60
2023-04-22T03:24:10.456Z,2.28
2023-04-22T03:26:45.122Z,1.90
2023-04-22T03:29:14.438Z,1.90
2023-04-22T03:31:45.009Z,1.90
2023-04-22T03:34:14.344Z,2.40
2023-04-22T03:36:44.980Z,2.45
2023-04-22T03:39:14.885Z,2.75
2023-04-22T03:41:46.529Z,2.85
2023-04-22T03:44:16.026Z,1.98
2023-04-22T03:46:47.122Z,2.35
2023-04-22T03:49:22.301Z,1.92
2023-04-22T03:51:52.012Z,1.60
2023-04-22T03:56:54.917Z,2.10
2023-04-22T03:59:25.505Z,2.17
2023-04-22T04:05:23.860Z,2.38
2023-04-22T04:07:53.492Z,2.50
2023-04-22T04:10:22.560Z,2.08
2023-04-22T04:12:54.574Z,2.22
2023-04-22T04:15:26.559Z,1.83
2023-04-22T04:17:58.126Z,1.92
2023-04-22T04:20:29.902Z,2.08
2023-04-22T04:22:59.187Z,2.28
2023-04-22T04:25:32.026Z,3.03
2023-04-22T04:28:15.446Z,2.03
2023-04-22T04:30:44.883Z,2.10
2023-04-22T04:33:46.235Z,2.22
2023-04-22T04:36:16.393Z,2.20
2023-04-22T04:39:30.599Z,2.33
2023-04-22T04:42:01.546Z,2.60
2023-04-22T04:44:35.208Z,2.38
2023-04-22T04:47:06.338Z,2.50
2023-04-22T04:49:47.813Z,2.33
2023-04-22T04:52:17.606Z,2.60
2023-04-22T04:54:47.108Z,2.83
2023-04-22T04:57:19.759Z,3.03
2023-04-22T04:59:50.430Z,2.95
2023-04-22T05:02:20.973Z,3.60
2023-04-22T05:04:50.429Z,4.25
2023-04-22T05:07:28.418Z,2.92
2023-04-22T05:09:59.081Z,2.78
2023-04-22T05:12:29.126Z,3.40
2023-04-22T05:14:59.397Z,2.90
2023-04-22T05:17:30.016Z,2.97
2023-04-22T05:19:59.617Z,2.70
2023-04-22T05:22:29.077Z,2.85
2023-04-22T05:25:01.650Z,2.88
2023-04-22T05:27:32.598Z,2.70
2023-04-22T05:30:02.502Z,2.50
2023-04-22T05:32:35.284Z,2.43
2023-04-22T05:35:04.974Z,2.58
2023-04-22T05:38:06.074Z,2.40
2023-04-22T05:40:37.893Z,2.50
2023-04-22T05:43:08.332Z,2.60
2023-04-22T05:45:40.739Z,2.70
2023-04-22T05:48:13.215Z,2.92
2023-04-22T05:50:52.239Z,3.35
2023-04-22T05:53:21.801Z,2.85
2023-04-22T05:55:51.654Z,3.25
2023-04-22T05:58:21.760Z,2.90
2023-04-22T06:01:00.262Z,3.10
2023-04-22T06:03:53.365Z,3.08
2023-04-22T06:06:22.810Z,2.80
2023-04-22T06:08:52.249Z,3.53
2023-04-22T06:11:22.274Z,3.28
2023-04-22T06:13:51.660Z,3.35
2023-04-22T06:16:21.289Z,3.00
2023-04-22T06:18:51.329Z,3.97
2023-04-22T06:21:21.604Z,2.88
2023-04-22T06:23:52.816Z,3.15
2023-04-22T06:26:23.584Z,3.33
2023-04-22T06:28:52.891Z,1.92
2023-04-22T06:31:23.537Z,2.22
2023-04-22T06:33:53.193Z,2.15
2023-04-22T06:36:22.413Z,1.75
2023-04-22T06:38:57.933Z,2.15
2023-04-22T06:41:41.485Z,1.67
2023-04-22T06:44:27.082Z,2.20
2023-04-22T06:47:14.409Z,2.00
2023-04-22T06:50:04.676Z,1.85
2023-04-22T06:53:22.171Z,1.98
2023-04-22T06:56:00.362Z,1.80
2023-04-22T06:58:29.468Z,2.03
2023-04-22T07:01:30.929Z,1.88
2023-04-22T07:04:00.971Z,1.80
2023-04-22T07:06:31.299Z,2.65
2023-04-22T07:09:01.308Z,1.48
2023-04-22T07:11:32.798Z,1.83
2023-04-22T07:14:05.594Z,1.88
2023-04-22T07:37:20.160Z,1.85
2023-04-22T07:39:50.389Z,1.60
2023-04-22T07:42:19.907Z,2.10
2023-04-22T07:44:49.290Z,1.38
2023-04-22T07:47:18.550Z,1.45
2023-04-22T07:49:47.981Z,1.45
2023-04-22T07:53:21.743Z,1.50
2023-04-22T07:56:06.215Z,1.08
2023-04-22T07:58:35.881Z,1.50
2023-04-22T08:01:05.559Z,1.25
2023-04-22T08:03:35.211Z,1.73
2023-04-22T08:06:04.498Z,2.92
2023-04-22T08:08:34.591Z,1.45
2023-04-22T08:11:03.793Z,1.63
2023-04-22T08:13:33.257Z,1.45
2023-04-22T08:16:06.047Z,1.20
2023-04-22T08:18:35.372Z,1.30
2023-04-22T08:21:04.908Z,1.40
2023-04-22T08:23:34.839Z,1.13
2023-04-22T08:26:06.221Z,1.05
2023-04-22T08:28:36.801Z,1.15
2023-04-22T08:31:06.018Z,1.33
2023-04-22T08:33:35.390Z,1.13
2023-04-22T08:36:05.237Z,1.20
2023-04-22T08:38:34.707Z,1.30
2023-04-22T08:41:06.657Z,1.27
2023-04-22T08:43:37.088Z,0.95
2023-04-22T08:46:38.775Z,1.20
2023-04-22T08:49:08.087Z,1.02
2023-04-22T08:51:38.230Z,1.10
2023-04-22T08:54:07.869Z,1.40
2023-04-22T08:56:38.141Z,1.00
2023-04-22T08:59:08.208Z,1.10
2023-04-22T09:01:38.731Z,2.85
2023-04-22T09:32:29.377Z,1.15
2023-04-22T09:34:59.502Z,1.25
2023-04-22T09:37:39.008Z,0.95
2023-04-22T09:40:17.464Z,0.90
2023-04-22T09:42:54.107Z,0.95
2023-04-22T09:45:36.906Z,1.33
2023-04-22T09:54:53.312Z,1.42
2023-04-22T09:57:23.712Z,1.00
2023-04-22T09:59:54.368Z,0.98
2023-04-22T10:02:31.135Z,0.98
2023-04-22T10:05:01.775Z,1.52
2023-04-22T10:07:32.546Z,1.13
2023-04-22T10:10:02.222Z,1.50
2023-04-22T10:12:35.752Z,1.27
2023-04-22T10:43:07.401Z,1.13
2023-04-22T10:45:38.006Z,1.35
2023-04-22T10:48:08.327Z,1.35
2023-04-22T10:50:50.432Z,1.27
2023-04-22T10:53:39.261Z,1.30
2023-04-22T11:00:53.192Z,1.30
2023-04-22T11:03:55.391Z,1.10
2023-04-22T11:07:32.010Z,1.35
2023-04-22T11:10:16.778Z,1.08
2023-04-22T11:12:47.144Z,1.10
2023-04-22T11:15:21.184Z,1.38
2023-04-22T11:17:54.524Z,1.00
2023-04-22T11:23:54.072Z,0.93
2023-04-22T11:26:36.448Z,1.10
2023-04-22T11:29:06.451Z,1.10
2023-04-22T11:31:37.634Z,0.90
2023-04-22T11:34:10.285Z,1.13
2023-04-22T11:36:39.518Z,1.05
2023-04-22T11:39:12.794Z,1.00
2023-04-22T11:41:43.392Z,1.20
2023-04-22T11:44:16.783Z,1.02
2023-04-22T11:46:46.255Z,0.88
2023-04-22T11:49:18.730Z,0.75
2023-04-22T11:51:55.948Z,0.82
2023-04-22T11:58:40.226Z,0.88
2023-04-22T12:01:16.448Z,1.05
2023-04-22T12:03:46.221Z,1.30
2023-04-22T12:06:17.681Z,0.80
2023-04-22T12:08:48.774Z,0.98
2023-04-22T12:11:18.148Z,1.02
2023-04-22T12:13:47.798Z,1.30
2023-04-22T12:16:20.371Z,0.82
2023-04-22T12:18:49.623Z,1.10
2023-04-22T12:21:25.145Z,0.77
2023-04-22T12:23:57.382Z,0.80
2023-04-22T12:26:30.913Z,1.17
2023-04-22T12:29:01.643Z,1.00
2023-04-22T12:31:31.402Z,0.88
2023-04-22T12:34:01.338Z,1.00
2023-04-22T12:36:33.689Z,1.67
2023-04-22T12:39:02.931Z,3.17
2023-04-22T12:41:32.511Z,2.60
2023-04-22T12:44:02.039Z,1.67
2023-04-22T12:46:31.337Z,1.50
2023-04-22T12:49:00.714Z,1.15
2023-04-22T12:51:30.720Z,1.17
2023-04-22T12:53:59.827Z,1.45
2023-04-22T12:56:42.501Z,1.55
2023-04-22T12:59:18.532Z,1.38
2023-04-22T13:05:15.567Z,1.10
2023-04-22T13:07:46.933Z,1.20
2023-04-22T13:10:24.145Z,1.35
2023-04-22T13:12:53.308Z,1.27
2023-04-22T13:15:23.388Z,1.02
2023-04-22T13:17:52.863Z,1.20
2023-04-22T13:20:22.282Z,1.58
2023-04-22T13:22:53.471Z,1.33
2023-04-22T13:25:23.246Z,1.50
2023-04-22T13:27:52.219Z,1.50
2023-04-22T13:30:21.582Z,1.70
2023-04-22T13:32:50.616Z,1.88
2023-04-22T13:52:39.838Z,3.33
2023-04-22T13:55:10.643Z,2.25
2023-04-22T13:58:12.805Z,2.20
2023-04-22T14:00:42.310Z,2.45
2023-04-22T14:03:11.653Z,2.20
2023-04-22T14:05:46.501Z,2.00
2023-04-22T14:08:47.219Z,2.15
2023-04-22T14:15:17.001Z,3.47
2023-04-22T14:17:50.273Z,2.13
2023-04-22T14:23:15.786Z,2.03
2023-04-22T14:29:17.000Z,1.80
2023-04-22T14:31:46.176Z,1.85
2023-04-22T14:34:15.535Z,1.80
2023-04-22T14:36:45.200Z,1.63
2023-04-22T14:39:14.490Z,2.33
2023-04-22T14:42:17.439Z,2.20
2023-04-22T14:44:58.147Z,2.03
2023-04-22T14:47:28.228Z,2.10
2023-04-22T14:49:57.714Z,2.45
2023-04-22T14:52:27.106Z,2.25
2023-04-22T14:54:57.781Z,2.60
2023-04-22T14:57:27.530Z,2.60
2023-04-22T14:59:56.618Z,2.17
2023-04-22T15:02:27.061Z,2.85
2023-04-22T15:04:57.087Z,2.78
2023-04-22T15:07:27.493Z,2.40
2023-04-22T15:09:59.650Z,5.80
2023-04-22T15:12:30.419Z,4.03
2023-04-22T15:15:31.361Z,2.92
2023-04-22T15:18:02.551Z,2.25
2023-04-22T15:20:32.437Z,2.80
2023-04-22T15:23:03.313Z,2.33
2023-04-22T15:25:33.272Z,2.30
2023-04-22T15:28:02.833Z,2.40
2023-04-22T15:30:32.154Z,2.03
2023-04-22T15:33:01.604Z,2.50
2023-04-22T15:35:32.956Z,2.88
2023-04-22T15:38:04.224Z,1.90
2023-04-22T15:40:33.699Z,2.22
2023-04-22T15:43:02.929Z,2.35
2023-04-22T15:45:32.282Z,2.22
2023-04-22T15:48:01.754Z,3.20
2023-04-22T15:50:30.971Z,3.35
2023-04-22T15:53:00.639Z,4.43
2023-04-22T15:55:29.700Z,5.68
2023-04-22T15:57:59.903Z,2.92
2023-04-22T16:00:29.214Z,2.50
2023-04-22T16:02:59.258Z,2.63
2023-04-22T16:05:29.654Z,2.78
2023-04-22T16:07:59.637Z,2.35
2023-04-22T16:10:29.031Z,2.42
2023-04-22T16:12:58.771Z,2.47
2023-04-22T16:15:28.435Z,2.47
2023-04-22T16:17:58.378Z,2.90
2023-04-22T16:20:28.364Z,2.60
2023-04-22T16:22:58.292Z,2.35
2023-04-22T16:25:30.850Z,2.63
2023-04-22T16:28:01.053Z,2.60
2023-04-22T16:30:30.291Z,2.53
2023-04-22T16:33:00.444Z,2.85
2023-04-22T16:35:30.544Z,2.35
2023-04-22T16:38:00.404Z,2.60
2023-04-22T16:40:30.511Z,2.20
2023-04-22T16:43:04.855Z,2.55
2023-04-22T16:45:35.096Z,2.58
2023-04-22T16:48:05.414Z,2.35
2023-04-22T16:50:35.248Z,2.53
2023-04-22T16:53:05.007Z,3.08
2023-04-22T16:55:36.744Z,2.92
2023-04-22T16:58:07.301Z,2.78
2023-04-22T17:00:37.277Z,2.60
2023-04-22T17:03:08.567Z,2.80
2023-04-22T17:05:38.630Z,12.27
2023-04-22T17:08:08.080Z,3.95
2023-04-22T17:10:42.648Z,3.33
2023-04-22T17:13:13.184Z,8.00
2023-04-22T17:15:43.249Z,5.55
2023-04-22T17:18:19.485Z,7.53
2023-04-22T17:20:50.345Z,10.70
2023-04-22T17:23:20.870Z,4.10
2023-04-22T17:25:52.633Z,3.20
2023-04-22T17:28:53.703Z,2.25
2023-04-22T17:35:29.904Z,2.25
2023-04-22T17:37:59.587Z,2.92
2023-04-22T17:40:37.765Z,2.60
2023-04-22T17:43:09.973Z,3.28
2023-04-22T17:45:39.485Z,2.72
2023-04-22T17:48:09.811Z,2.55
2023-04-22T17:50:39.558Z,2.63
2023-04-22T17:53:10.114Z,3.92
2023-04-22T17:55:39.962Z,3.20
2023-04-22T17:58:09.191Z,5.93
2023-04-22T18:00:39.321Z,17.50
2023-04-22T18:03:08.891Z,6.63
2023-04-22T18:05:44.308Z,23.13
2023-04-22T18:08:13.869Z,6.57
2023-04-22T18:10:42.969Z,3.90
2023-04-22T18:13:12.409Z,7.43
2023-04-22T18:15:41.658Z,3.38
2023-04-22T18:18:11.340Z,2.90
2023-04-22T18:20:40.370Z,2.42
2023-04-22T18:23:10.471Z,2.47
2023-04-22T18:25:40.189Z,2.57
2023-04-22T18:28:10.221Z,2.90
2023-04-22T18:30:39.587Z,3.10
2023-04-22T18:33:09.857Z,2.95
2023-04-22T18:35:39.283Z,2.88
2023-04-22T18:38:09.531Z,3.17
2023-04-22T18:40:39.170Z,3.35
2023-04-22T18:43:08.865Z,3.00
2023-04-22T18:45:38.238Z,3.20
2023-04-22T18:48:08.382Z,3.47
2023-04-22T18:50:38.043Z,3.28
2023-04-22T18:53:07.471Z,3.58
2023-04-22T18:55:36.898Z,2.80
2023-04-22T18:58:06.962Z,2.92
2023-04-22T19:00:37.755Z,3.03
2023-04-22T19:03:08.224Z,3.10
2023-04-22T19:05:40.326Z,2.80
2023-04-22T19:08:09.983Z,2.80
2023-04-22T19:10:40.504Z,2.67
2023-04-22T19:13:18.857Z,3.10
2023-04-22T19:15:52.967Z,2.78
2023-04-22T19:18:22.578Z,2.53
2023-04-22T19:20:53.098Z,2.03
2023-04-22T19:23:23.217Z,2.25
2023-04-22T19:25:53.314Z,2.30
2023-04-22T19:28:22.682Z,2.20
2023-04-22T19:30:52.770Z,2.10
2023-04-22T19:33:22.660Z,1.90
2023-04-22T19:35:52.146Z,2.00
2023-04-22T19:38:23.442Z,1.95
2023-04-22T19:40:53.354Z,2.10
2023-04-22T19:43:23.538Z,2.15
2023-04-22T19:45:53.394Z,2.20
2023-04-22T19:48:24.626Z,2.30
2023-04-22T19:50:55.059Z,2.15
2023-04-22T19:53:25.189Z,2.22
2023-04-22T19:56:06.798Z,2.17
2023-04-22T19:58:36.605Z,2.00
2023-04-22T20:01:06.688Z,2.40
2023-04-22T20:03:38.070Z,1.98
2023-04-22T20:06:08.309Z,2.20
2023-04-22T20:08:43.148Z,2.80
2023-04-22T20:11:13.225Z,2.08
2023-04-22T20:13:43.994Z,2.58
2023-04-22T20:16:14.945Z,3.55
2023-04-22T20:18:45.362Z,2.40
2023-04-22T20:21:16.289Z,2.50
2023-04-22T20:23:47.853Z,2.08
2023-04-22T20:26:21.036Z,2.70
2023-04-22T20:28:53.431Z,2.63
2023-04-22T20:31:24.584Z,2.73
2023-04-22T20:33:54.339Z,3.63
2023-04-22T20:36:25.381Z,2.03
2023-04-22T20:38:59.361Z,3.03
2023-04-22T20:41:28.920Z,1.92
2023-04-22T20:43:58.699Z,3.30
2023-04-22T20:46:28.080Z,2.70
2023-04-22T20:48:57.512Z,2.40
2023-04-22T20:51:27.514Z,2.60
2023-04-22T20:53:58.666Z,3.90
2023-04-22T20:56:28.363Z,4.97
2023-04-22T20:58:58.529Z,5.03
2023-04-22T21:01:28.490Z,5.22
2023-04-22T21:03:59.597Z,4.50
2023-04-22T21:06:33.169Z,3.60
2023-04-22T21:09:03.473Z,4.65
2023-04-22T21:11:33.186Z,3.70
2023-04-22T21:14:02.725Z,3.45
2023-04-22T21:17:31.352Z,4.15
2023-04-22T21:20:02.408Z,3.60
2023-04-22T21:22:33.515Z,3.55
2023-04-22T21:25:03.477Z,3.45
2023-04-22T21:31:01.589Z,3.40
2023-04-22T21:33:30.944Z,2.90
2023-04-22T21:36:33.234Z,2.85
2023-04-22T21:39:04.184Z,2.72
2023-04-22T21:41:33.811Z,3.03
2023-04-22T21:44:03.096Z,3.10
2023-04-22T21:46:32.852Z,2.78
2023-04-22T21:49:02.056Z,2.47
2023-04-22T21:51:32.740Z,3.10
2023-04-22T21:54:02.816Z,2.80
2023-04-22T21:56:34.995Z,2.30
2023-04-22T21:59:04.458Z,2.60
2023-04-22T22:01:33.861Z,2.97
2023-04-22T22:04:04.245Z,2.50
2023-04-22T22:06:34.431Z,2.58
2023-04-22T22:09:04.025Z,2.63
2023-04-22T22:11:33.120Z,2.25
2023-04-22T22:14:02.720Z,2.75
2023-04-22T22:16:32.676Z,2.80
2023-04-22T22:19:05.570Z,2.40
2023-04-22T22:21:34.943Z,2.83
2023-04-22T22:24:05.160Z,2.70
2023-04-22T22:26:37.295Z,2.72
2023-04-22T22:29:06.663Z,2.60
2023-04-22T22:31:36.006Z,2.50
2023-04-22T22:34:05.131Z,2.33
2023-04-22T22:36:34.926Z,2.72
2023-04-22T22:39:05.099Z,2.60
2023-04-22T22:41:34.316Z,3.08
2023-04-22T22:44:03.785Z,2.97
2023-04-22T22:46:33.000Z,2.83
2023-04-22T22:49:02.994Z,2.78
2023-04-22T22:51:33.717Z,2.65
2023-04-22T22:54:03.231Z,2.67
2023-04-22T22:56:32.521Z,3.50
2023-04-22T22:59:01.685Z,2.83
2023-04-22T23:01:31.275Z,3.33
2023-04-22T23:04:00.618Z,3.17
2023-04-22T23:06:30.089Z,2.92
2023-04-22T23:08:59.301Z,2.60
2023-04-22T23:11:28.398Z,3.08
2023-04-22T23:13:57.641Z,3.40
2023-04-22T23:16:28.112Z,4.00
2023-04-22T23:18:58.046Z,3.33
2023-04-22T23:21:28.484Z,3.28
2023-04-22T23:24:00.918Z,3.15
2023-04-22T23:26:30.341Z,2.75
2023-04-22T23:28:59.933Z,3.17
2023-04-22T23:31:31.719Z,2.80
2023-04-22T23:34:06.507Z,2.67
2023-04-22T23:36:40.467Z,2.70
2023-04-22T23:39:10.718Z,2.58
2023-04-22T23:41:39.968Z,2.38
2023-04-22T23:44:08.983Z,2.80
2023-04-22T23:46:49.540Z,2.72
2023-04-22T23:49:18.779Z,3.20
2023-04-22T23:55:22.058Z,2.65
2023-04-22T23:58:00.596Z,2.70
